Time;durP1;ratioP1;P1;durP2;ratioP2;P2;SDS_P1;SDS_P2;PMS_P1;PMS_P2;Temp;Humidity;BMP_temperature;BMP_pressure;BME280_temperature;BME280_humidity;BME280_pressure;Samples;Min_cycle;Max_cycle;Signal;HPM_P1;HPM_P2
2024/04/12 00:01:09;;;;;;;1.90;1.80;;;13.90;99.90;;;;;;5431024;26;20301;-71
2024/04/12 00:03:41;;;;;;;1.90;1.80;;;13.90;99.90;;;;;;5429878;26;20370;-71
2024/04/12 00:06:15;;;;;;;1.83;1.73;;;13.80;99.90;;;;;;5425592;26;21006;-72
2024/04/12 00:08:46;;;;;;;2.00;1.90;;;13.80;99.90;;;;;;5423644;26;20298;-72
2024/04/12 00:11:12;;;;;;;2.05;1.90;;;13.80;99.90;;;;;;5406431;26;20831;-72
2024/04/12 00:13:43;;;;;;;1.90;1.75;;;13.80;99.90;;;;;;5434186;26;20255;-70
2024/04/12 00:16:09;;;;;;;2.20;2.00;;;13.80;99.90;;;;;;5422848;26;20256;-72
2024/04/12 00:18:45;;;;;;;2.20;2.00;;;13.80;99.90;;;;;;5425295;26;20243;-72
2024/04/12 00:21:11;;;;;;;1.65;1.55;;;13.80;99.90;;;;;;5417617;26;20328;-73
2024/04/12 00:23:41;;;;;;;1.98;1.83;;;13.80;99.90;;;;;;5427217;26;20271;-71
2024/04/12 00:26:11;;;;;;;2.08;1.98;;;13.80;99.90;;;;;;5430731;26;20306;-72
2024/04/12 00:28:41;;;;;;;2.42;1.90;;;13.80;99.90;;;;;;5423398;26;20711;-71
2024/04/12 00:31:13;;;;;;;1.95;1.85;;;13.80;99.90;;;;;;5432331;26;20735;-71
2024/04/12 00:33:48;;;;;;;2.35;1.90;;;13.80;99.90;;;;;;5420685;26;20306;-71
2024/04/12 00:36:17;;;;;;;2.17;1.95;;;13.80;99.90;;;;;;5432236;26;20305;-71
2024/04/12 00:38:46;;;;;;;2.22;2.10;;;13.70;99.90;;;;;;5428873;26;20294;-73
2024/04/12 00:41:18;;;;;;;2.22;2.13;;;13.70;99.90;;;;;;5426965;26;20307;-71
2024/04/12 00:43:52;;;;;;;2.22;2.13;;;13.70;99.90;;;;;;5434189;26;20255;-72
2024/04/12 00:46:23;;;;;;;2.25;2.15;;;13.60;99.90;;;;;;5425976;26;20294;-71
2024/04/12 00:48:57;;;;;;;2.25;2.05;;;13.60;99.90;;;;;;5423740;26;20306;-71
2024/04/12 00:51:27;;;;;;;2.75;2.55;;;13.60;99.90;;;;;;5428637;26;20254;-70
2024/04/12 00:53:59;;;;;;;2.30;2.10;;;13.60;99.90;;;;;;5425864;26;20255;-70
2024/04/12 00:56:27;;;;;;;2.28;2.10;;;13.60;99.90;;;;;;5430088;26;20255;-71
2024/04/12 00:58:56;;;;;;;2.25;2.03;;;13.60;99.90;;;;;;5428200;26;20260;-72
2024/04/12 01:01:24;;;;;;;2.42;2.20;;;13.60;99.90;;;;;;5436444;26;20258;-72
2024/04/12 01:03:56;;;;;;;2.33;2.22;;;13.50;99.90;;;;;;5424471;26;20759;-72
2024/04/12 01:06:24;;;;;;;2.85;2.40;;;13.50;99.90;;;;;;5420822;26;20255;-71
2024/04/12 01:08:54;;;;;;;2.88;2.47;;;13.50;99.90;;;;;;5420073;26;20331;-72
2024/04/12 01:11:21;;;;;;;3.25;2.30;;;13.50;99.90;;;;;;5426565;26;20279;-70
2024/04/12 01:13:51;;;;;;;2.75;2.55;;;13.40;99.90;;;;;;5427541;26;20255;-71
2024/04/12 01:16:18;;;;;;;2.63;2.42;;;13.40;99.90;;;;;;5425896;26;20346;-73
2024/04/12 01:18:47;;;;;;;2.38;2.17;;;13.40;99.90;;;;;;5425777;26;20464;-71
2024/04/12 01:21:16;;;;;;;2.80;2.38;;;13.40;99.90;;;;;;5431233;26;20924;-71
2024/04/12 01:23:48;;;;;;;2.45;2.28;;;13.40;99.90;;;;;;5423418;26;20257;-70
2024/04/12 01:26:17;;;;;;;2.38;2.28;;;13.40;99.90;;;;;;5426438;26;20260;-71
2024/04/12 01:28:48;;;;;;;2.55;2.45;;;13.30;99.90;;;;;;5390207;26;20313;-71
2024/04/12 01:31:15;;;;;;;2.58;2.38;;;13.30;99.90;;;;;;5369110;26;20256;-71
2024/04/12 01:33:48;;;;;;;3.75;2.53;;;13.40;99.90;;;;;;5430857;26;20732;-74
2024/04/12 01:36:17;;;;;;;2.85;2.15;;;13.70;99.90;;;;;;5431105;26;20251;-70
2024/04/12 01:38:53;;;;;;;2.58;2.38;;;13.90;99.90;;;;;;5427866;26;20310;-73
2024/04/12 01:41:23;;;;;;;3.13;2.70;;;14.20;99.90;;;;;;5427617;26;20238;-72
2024/04/12 01:43:52;;;;;;;2.70;2.50;;;14.40;99.90;;;;;;5432670;26;20322;-70
2024/04/12 01:46:26;;;;;;;2.90;2.70;;;14.40;99.90;;;;;;5428296;26;20834;-73
2024/04/12 01:48:55;;;;;;;2.47;2.28;;;14.20;99.90;;;;;;5421447;26;20288;-72
2024/04/12 01:51:24;;;;;;;2.80;2.60;;;14.00;99.90;;;;;;5424449;26;20252;-71
2024/04/12 01:53:54;;;;;;;2.35;2.20;;;13.90;99.90;;;;;;5434064;26;20841;-71
2024/04/12 01:56:23;;;;;;;3.05;2.40;;;13.70;99.90;;;;;;5400056;26;20322;-73
2024/04/12 01:58:54;;;;;;;2.67;2.47;;;13.60;99.90;;;;;;5429523;26;20251;-70
2024/04/12 02:01:22;;;;;;;2.70;2.50;;;13.60;99.90;;;;;;5419093;26;20809;-70
2024/04/12 02:03:50;;;;;;;3.20;2.70;;;13.50;99.90;;;;;;5427321;26;20322;-70
2024/04/12 02:06:17;;;;;;;2.33;2.22;;;13.40;99.90;;;;;;5429081;26;20263;-72
2024/04/12 02:08:48;;;;;;;3.58;2.40;;;13.40;99.90;;;;;;5436378;26;20939;-72
2024/04/12 02:11:22;;;;;;;2.42;2.33;;;13.40;99.90;;;;;;5430233;26;20266;-72
2024/04/12 02:13:54;;;;;;;2.80;2.60;;;13.40;99.90;;;;;;5431832;26;20258;-72
2024/04/12 02:16:21;;;;;;;2.90;2.70;;;13.30;99.90;;;;;;5434678;26;20305;-72
2024/04/12 02:18:49;;;;;;;2.95;2.50;;;13.20;99.90;;;;;;5437003;26;20341;-72
2024/04/12 02:21:18;;;;;;;2.45;2.25;;;13.20;99.90;;;;;;5427404;26;21066;-71
2024/04/12 02:23:48;;;;;;;2.63;2.53;;;13.10;99.90;;;;;;5429666;26;20282;-71
2024/04/12 02:26:15;;;;;;;3.03;2.83;;;13.10;99.90;;;;;;5425310;26;20239;-70
2024/04/12 02:28:47;;;;;;;2.80;2.60;;;13.10;99.90;;;;;;5430671;25;20301;-70
2024/04/12 02:31:15;;;;;;;3.47;3.08;;;13.10;99.90;;;;;;5429910;26;20263;-70
2024/04/12 02:33:44;;;;;;;2.65;2.55;;;13.00;99.90;;;;;;5433307;26;20322;-70
2024/04/12 02:36:14;;;;;;;2.72;2.53;;;13.10;99.90;;;;;;5433258;26;20752;-70
2024/04/12 02:38:49;;;;;;;2.95;2.75;;;13.00;99.90;;;;;;5436928;26;20250;-70
2024/04/12 02:41:16;;;;;;;2.60;2.40;;;13.00;99.90;;;;;;5427958;26;20605;-70
2024/04/12 02:43:47;;;;;;;3.88;2.70;;;13.00;99.90;;;;;;5394262;26;20252;-70
2024/04/12 02:46:16;;;;;;;2.70;2.50;;;12.90;99.90;;;;;;5410077;26;20298;-70
2024/04/12 02:48:47;;;;;;;2.45;2.25;;;13.00;99.90;;;;;;5391927;26;20260;-70
2024/04/12 02:51:17;;;;;;;2.67;2.47;;;12.90;99.90;;;;;;5402899;26;20253;-71
2024/04/12 02:53:48;;;;;;;2.53;2.42;;;12.90;99.90;;;;;;5434401;26;20263;-71
2024/04/12 02:56:17;;;;;;;3.10;2.90;;;12.90;99.90;;;;;;5432211;26;20240;-71
2024/04/12 02:58:46;;;;;;;2.58;2.38;;;12.90;99.90;;;;;;5427258;26;20310;-71
2024/04/12 03:01:17;;;;;;;2.90;2.58;;;12.80;99.90;;;;;;5430198;26;20255;-70
2024/04/12 03:03:48;;;;;;;2.90;2.70;;;12.80;99.90;;;;;;5424013;26;20883;-73
2024/04/12 03:06:16;;;;;;;3.08;2.78;;;12.80;99.90;;;;;;5435712;26;20255;-71
2024/04/12 03:08:47;;;;;;;2.45;2.25;;;12.70;99.90;;;;;;5432554;26;20373;-70
2024/04/12 03:11:20;;;;;;;2.45;2.20;;;12.70;99.90;;;;;;5427056;26;20251;-71
2024/04/12 03:13:50;;;;;;;2.53;2.33;;;12.70;99.90;;;;;;5403646;26;20771;-71
2024/04/12 03:16:20;;;;;;;3.00;2.70;;;12.70;99.90;;;;;;5430072;26;20381;-71
2024/04/12 03:18:51;;;;;;;2.50;2.30;;;12.70;99.90;;;;;;5428838;26;20846;-71
2024/04/12 06:13:06;;;;;;;4.85;3.80;;;16.10;99.90;;;;;;5474775;26;20277;-72
2024/04/12 06:15:36;;;;;;;5.68;4.25;;;16.00;99.90;;;;;;5464297;25;20289;-72
2024/04/12 06:18:05;;;;;;;4.35;3.95;;;16.10;99.90;;;;;;5461192;26;20332;-72
2024/04/12 06:20:31;;;;;;;5.05;4.03;;;16.30;99.90;;;;;;5460300;26;20318;-71
2024/04/12 06:23:06;;;;;;;4.15;3.60;;;16.50;99.90;;;;;;5464628;26;20250;-72
2024/04/12 06:25:38;;;;;;;4.03;3.65;;;16.70;99.90;;;;;;5462940;26;20245;-70
2024/04/12 06:28:11;;;;;;;4.18;3.83;;;16.90;99.90;;;;;;5465017;26;20349;-74
2024/04/12 06:30:41;;;;;;;3.70;3.40;;;17.10;99.90;;;;;;5466854;26;20341;-73
2024/04/12 06:33:12;;;;;;;4.10;3.70;;;17.30;99.90;;;;;;5405126;26;20253;-71
2024/04/12 06:35:40;;;;;;;3.72;3.42;;;17.30;99.90;;;;;;5431283;26;20772;-71
2024/04/12 06:38:10;;;;;;;5.95;4.47;;;17.30;99.90;;;;;;5437555;26;20259;-73
2024/04/12 06:40:37;;;;;;;4.60;3.50;;;17.30;99.90;;;;;;5440884;26;20259;-73
2024/04/12 06:43:11;;;;;;;4.57;4.10;;;17.30;99.90;;;;;;5467863;26;20280;-73
2024/04/12 06:45:43;;;;;;;5.43;4.20;;;17.20;99.90;;;;;;5438941;26;20245;-72
2024/04/12 06:48:16;;;;;;;6.13;4.50;;;17.20;99.90;;;;;;5463115;26;20265;-73
2024/04/12 06:50:52;;;;;;;4.50;3.83;;;17.10;99.90;;;;;;5411523;26;21093;-71
2024/04/12 06:53:21;;;;;;;4.30;3.92;;;17.20;99.90;;;;;;5466108;26;20288;-74
2024/04/12 06:55:47;;;;;;;4.57;3.67;;;17.50;99.90;;;;;;5438808;26;21101;-73
2024/04/12 06:58:17;;;;;;;4.40;4.00;;;17.80;99.90;;;;;;5467151;26;20285;-72
2024/04/12 07:00:46;;;;;;;4.38;3.97;;;18.10;99.90;;;;;;5468383;26;23634;-72
2024/04/12 07:03:16;;;;;;;6.15;3.95;;;18.30;99.90;;;;;;5466914;26;20395;-72
2024/04/12 07:05:47;;;;;;;6.43;4.07;;;18.50;99.90;;;;;;5468001;26;20347;-72
2024/04/12 07:08:16;;;;;;;4.47;3.80;;;18.50;99.90;;;;;;5441387;26;20285;-73
2024/04/12 07:10:42;;;;;;;6.57;4.40;;;18.40;99.90;;;;;;5434012;26;20379;-74
2024/04/12 07:13:11;;;;;;;5.93;4.30;;;18.20;99.90;;;;;;5440499;26;20262;-73
2024/04/12 07:15:38;;;;;;;5.32;3.97;;;18.00;99.90;;;;;;5438685;26;20246;-73
2024/04/12 07:18:11;;;;;;;5.20;4.00;;;17.80;99.90;;;;;;5468167;26;20305;-73
2024/04/12 07:20:40;;;;;;;5.60;4.18;;;17.70;99.90;;;;;;5466516;26;20262;-73
2024/04/12 07:23:10;;;;;;;5.05;3.90;;;17.70;99.90;;;;;;5474087;26;20362;-72
2024/04/12 07:25:39;;;;;;;6.63;4.20;;;17.70;99.90;;;;;;5465920;26;20335;-73
2024/04/12 07:28:08;;;;;;;5.93;4.20;;;17.60;99.90;;;;;;5462753;26;20709;-73
2024/04/12 07:30:37;;;;;;;7.38;4.40;;;17.60;99.90;;;;;;5467551;26;20373;-74
2024/04/12 07:33:06;;;;;;;5.65;5.00;;;17.70;99.90;;;;;;5467618;26;20363;-73
2024/04/12 07:35:35;;;;;;;6.15;4.60;;;17.80;99.90;;;;;;5465777;26;20304;-73
2024/04/12 07:38:04;;;;;;;5.07;4.38;;;17.80;99.90;;;;;;5441410;26;20259;-72
2024/04/12 07:40:31;;;;;;;5.63;4.30;;;18.00;99.90;;;;;;5464768;26;20258;-73
2024/04/12 07:43:08;;;;;;;7.72;4.35;;;18.20;99.90;;;;;;5440954;26;20353;-73
2024/04/12 07:45:37;;;;;;;7.03;4.13;;;18.30;99.90;;;;;;5457407;26;20365;-73
2024/04/12 07:48:23;;;;;;;4.43;4.03;;;18.40;99.90;;;;;;5459479;26;20259;-73
2024/04/12 07:50:54;;;;;;;6.95;4.53;;;18.50;99.90;;;;;;5430711;26;20259;-72
2024/04/12 07:53:24;;;;;;;5.78;4.28;;;18.50;99.90;;;;;;5459384;26;20289;-73
2024/04/12 07:55:58;;;;;;;4.57;4.18;;;18.50;99.90;;;;;;5440189;26;20610;-73
2024/04/12 07:58:34;;;;;;;4.88;4.00;;;18.60;99.90;;;;;;5462651;26;20257;-73
2024/04/12 08:01:09;;;;;;;4.45;4.05;;;18.90;99.90;;;;;;5465410;26;20251;-74
2024/04/12 08:03:39;;;;;;;4.60;4.20;;;19.20;99.90;;;;;;5443529;26;20249;-74
2024/04/12 08:06:18;;;;;;;5.35;4.07;;;19.30;99.90;;;;;;5465325;26;20259;-73
2024/04/12 08:09:03;;;;;;;5.32;3.97;;;19.40;99.90;;;;;;5430443;26;20265;-73
2024/04/12 08:11:36;;;;;;;5.25;3.67;;;19.70;99.90;;;;;;5460742;26;20369;-73
2024/04/12 08:14:05;;;;;;;6.20;4.13;;;20.10;99.90;;;;;;5436107;26;20288;-72
2024/04/12 08:16:38;;;;;;;4.72;3.88;;;20.30;99.90;;;;;;5437915;26;20262;-73
2024/04/12 08:19:11;;;;;;;5.93;3.83;;;20.20;99.90;;;;;;5467672;26;20305;-74
2024/04/12 08:21:44;;;;;;;11.30;7.40;;;20.40;99.90;;;;;;5476909;26;20288;-71
2024/04/12 08:24:11;;;;;;;5.50;4.93;;;20.60;99.90;;;;;;5470989;26;20300;-73
2024/04/12 08:26:45;;;;;;;5.13;4.53;;;20.70;99.90;;;;;;5471719;26;20277;-73
2024/04/12 08:29:20;;;;;;;4.75;3.78;;;20.80;99.90;;;;;;5470320;26;20261;-73
2024/04/12 08:31:50;;;;;;;4.97;4.03;;;21.10;99.90;;;;;;5460277;26;20726;-73
2024/04/12 08:34:16;;;;;;;4.50;3.40;;;21.20;99.90;;;;;;5464525;26;20341;-73
2024/04/12 08:36:49;;;;;;;4.55;3.22;;;21.20;99.90;;;;;;5467119;26;20301;-72
2024/04/12 08:39:25;;;;;;;5.43;3.75;;;21.20;99.90;;;;;;5459463;26;21069;-73
2024/04/12 08:41:59;;;;;;;4.70;3.42;;;21.00;99.90;;;;;;5466275;26;20288;-73
2024/04/12 08:44:26;;;;;;;6.45;3.50;;;20.90;99.90;;;;;;5468962;26;20282;-73
2024/04/12 08:46:57;;;;;;;4.43;3.63;;;21.10;99.90;;;;;;5441244;26;20250;-73
2024/04/12 08:49:24;;;;;;;5.85;3.80;;;20.90;99.90;;;;;;5464785;26;20308;-72
2024/04/12 08:51:58;;;;;;;5.20;3.67;;;20.80;99.90;;;;;;5466763;26;20354;-73
2024/04/12 08:54:26;;;;;;;6.47;3.38;;;20.80;99.90;;;;;;5474065;26;20260;-73
2024/04/12 08:56:55;;;;;;;3.78;3.22;;;20.80;99.90;;;;;;5474204;26;20250;-73
2024/04/12 08:59:26;;;;;;;4.03;3.45;;;20.70;99.90;;;;;;5462731;26;20305;-73
2024/04/12 09:01:57;;;;;;;3.92;3.53;;;20.90;99.90;;;;;;5464864;26;20258;-73
2024/04/12 09:04:25;;;;;;;5.57;3.10;;;20.70;99.90;;;;;;5467110;26;20750;-72
2024/04/12 09:06:58;;;;;;;4.88;3.90;;;20.70;99.90;;;;;;5473944;26;20606;-72
2024/04/12 09:09:24;;;;;;;4.90;3.88;;;20.70;99.90;;;;;;5467925;26;20258;-72
2024/04/12 09:11:54;;;;;;;4.28;3.92;;;20.80;99.90;;;;;;5458846;26;20306;-73
2024/04/12 09:14:20;;;;;;;3.83;3.38;;;20.90;99.90;;;;;;5465368;26;20348;-74
2024/04/12 09:16:55;;;;;;;4.30;3.45;;;21.00;99.90;;;;;;5429214;26;20250;-73
2024/04/12 09:19:25;;;;;;;3.95;3.05;;;21.10;99.90;;;;;;5461347;26;20705;-73
2024/04/12 09:22:09;;;;;;;3.97;3.17;;;21.50;99.90;;;;;;5461509;26;20249;-73
2024/04/12 09:24:39;;;;;;;4.30;3.40;;;21.80;99.90;;;;;;5459138;26;20738;-72
2024/04/12 09:27:09;;;;;;;4.53;3.72;;;21.90;99.90;;;;;;5459789;26;20763;-72
2024/04/12 09:29:43;;;;;;;4.38;3.60;;;22.10;99.90;;;;;;5465350;26;20288;-72
2024/04/12 09:34:58;;;;;;;4.32;2.95;;;22.60;99.90;;;;;;5467303;26;20296;-73
2024/04/12 09:37:38;;;;;;;5.10;3.50;;;22.80;99.90;;;;;;5471482;26;20277;-73
2024/04/12 09:40:16;;;;;;;4.45;3.50;;;22.80;99.90;;;;;;5471649;26;20251;-73
2024/04/12 09:43:05;;;;;;;7.32;3.55;;;22.60;99.90;;;;;;5475807;26;20258;-72
2024/04/12 09:45:45;;;;;;;4.80;3.78;;;22.60;99.90;;;;;;5442344;26;20250;-72
2024/04/12 10:38:46;;;;;;;4.05;3.22;;;24.10;99.90;;;;;;5451297;26;21639;-72
2024/04/12 10:41:16;;;;;;;3.72;3.17;;;24.10;99.90;;;;;;5418121;26;20287;-73
2024/04/12 10:43:47;;;;;;;2.95;2.70;;;24.10;99.90;;;;;;5468950;26;20234;-72
2024/04/12 10:46:16;;;;;;;5.38;2.92;;;24.30;99.90;;;;;;5464990;26;20263;-73
2024/04/12 10:48:42;;;;;;;5.15;3.17;;;24.40;99.90;;;;;;5468662;26;20827;-72
2024/04/12 10:51:14;;;;;;;4.07;3.28;;;24.20;99.90;;;;;;5463688;26;20298;-72
2024/04/12 10:53:41;;;;;;;4.32;2.75;;;24.40;99.90;;;;;;5473849;26;20261;-72
2024/04/12 10:56:11;;;;;;;5.00;3.38;;;24.40;99.90;;;;;;5463305;26;20267;-72
2024/04/12 10:58:51;;;;;;;5.35;3.20;;;24.40;99.90;;;;;;5463048;26;20307;-71
2024/04/12 11:01:22;;;;;;;8.20;3.20;;;24.20;99.90;;;;;;5463839;26;20324;-72
2024/04/12 11:03:56;;;;;;;4.40;3.10;;;24.10;99.90;;;;;;5465149;26;20723;-72
2024/04/12 11:06:30;;;;;;;5.30;3.20;;;24.00;99.90;;;;;;5471966;26;20291;-73
2024/04/12 11:08:58;;;;;;;3.42;2.70;;;24.10;99.90;;;;;;5462324;26;20364;-73
2024/04/12 11:11:31;;;;;;;3.53;2.83;;;24.10;99.90;;;;;;5431224;26;20273;-73
2024/04/12 11:14:00;;;;;;;3.78;3.05;;;24.10;99.90;;;;;;5453035;26;20249;-73
2024/04/12 11:33:21;;;;;;;4.60;2.90;;;24.90;99.90;;;;;;5438779;26;20805;-72
2024/04/12 11:35:52;;;;;;;4.85;3.30;;;24.90;99.90;;;;;;5461928;26;20258;-73
2024/04/12 11:38:21;;;;;;;4.78;2.95;;;25.00;99.90;;;;;;5434669;26;20332;-74
2024/04/12 11:40:48;;;;;;;4.22;2.95;;;25.10;99.90;;;;;;5457461;26;20687;-72
2024/04/12 11:43:19;;;;;;;4.25;2.70;;;25.20;99.90;;;;;;5430897;26;20305;-71
2024/04/12 11:45:49;;;;;;;4.97;2.60;;;25.20;99.90;;;;;;5462189;26;20259;-71
2024/04/12 11:48:17;;;;;;;5.88;3.33;;;25.20;99.90;;;;;;5432517;26;20331;-72
2024/04/12 11:50:43;;;;;;;3.15;2.80;;;25.50;99.90;;;;;;5467067;26;20265;-72
2024/04/12 11:53:13;;;;;;;4.90;3.03;;;25.60;99.90;;;;;;5439871;26;20258;-72
2024/04/12 11:55:39;;;;;;;3.03;2.70;;;25.80;99.90;;;;;;5467832;26;20293;-72
2024/04/12 11:58:09;;;;;;;3.15;2.70;;;26.00;99.90;;;;;;5460826;26;20345;-72
2024/04/12 12:00:37;;;;;;;4.13;2.70;;;26.00;99.90;;;;;;5419740;26;20326;-72
2024/04/12 12:03:15;;;;;;;3.90;2.70;;;26.00;99.90;;;;;;5459101;26;20720;-72
2024/04/12 12:05:41;;;;;;;4.05;2.92;;;26.00;99.90;;;;;;5440984;26;20253;-72
2024/04/12 12:08:12;;;;;;;5.28;3.10;;;26.00;99.90;;;;;;5477319;26;20734;-72
2024/04/12 12:10:39;;;;;;;3.15;2.80;;;25.80;99.90;;;;;;5451544;26;20718;-72
2024/04/12 12:13:07;;;;;;;5.53;3.50;;;25.80;99.90;;;;;;5433513;26;20251;-73
2024/04/12 12:15:34;;;;;;;3.00;2.70;;;26.00;99.90;;;;;;5464619;26;20250;-72
2024/04/12 12:18:04;;;;;;;3.50;2.80;;;26.20;99.90;;;;;;5465443;26;21063;-72
2024/04/12 12:20:33;;;;;;;2.70;2.45;;;26.20;99.90;;;;;;5459321;26;20803;-72
2024/04/12 12:23:02;;;;;;;2.53;2.33;;;26.10;99.90;;;;;;5471797;26;20652;-73
2024/04/12 12:25:29;;;;;;;3.47;2.80;;;26.30;99.90;;;;;;5414845;26;20391;-73
2024/04/12 12:27:57;;;;;;;4.50;2.75;;;26.30;99.90;;;;;;5470991;26;20249;-73
2024/04/12 12:30:24;;;;;;;4.85;2.65;;;26.40;99.90;;;;;;5464538;26;20254;-73
2024/04/12 12:32:52;;;;;;;5.68;3.20;;;26.50;99.90;;;;;;5465668;26;20253;-73
2024/04/12 12:35:22;;;;;;;3.42;3.13;;;26.40;99.90;;;;;;5465101;26;20261;-73
2024/04/12 12:37:55;;;;;;;2.85;2.65;;;26.30;99.90;;;;;;5432962;26;20976;-73
2024/04/12 12:40:23;;;;;;;2.70;2.50;;;26.30;99.90;;;;;;5436776;26;20257;-74
2024/04/12 12:42:51;;;;;;;2.67;2.45;;;26.50;99.90;;;;;;5435949;26;20354;-74
2024/04/12 12:45:21;;;;;;;4.78;2.97;;;26.60;99.90;;;;;;5468197;26;20280;-73
2024/04/12 12:47:47;;;;;;;4.88;2.55;;;26.50;99.90;;;;;;5437189;26;20375;-70
2024/04/12 12:50:23;;;;;;;3.22;2.50;;;26.60;99.90;;;;;;5442214;26;20293;-73
2024/04/12 12:52:52;;;;;;;2.78;2.47;;;26.50;99.90;;;;;;5461942;26;20253;-73
2024/04/12 12:55:23;;;;;;;3.63;2.72;;;26.50;99.90;;;;;;5462975;26;20305;-73
2024/04/12 12:57:57;;;;;;;4.53;2.75;;;26.70;99.90;;;;;;5418985;26;20262;-72
2024/04/12 13:00:33;;;;;;;2.88;2.45;;;26.50;99.90;;;;;;5436683;26;20361;-73
2024/04/12 13:03:01;;;;;;;3.13;2.58;;;26.70;99.90;;;;;;5468461;26;20387;-73
2024/04/12 13:05:30;;;;;;;4.50;2.90;;;26.70;99.90;;;;;;5436755;26;20301;-75
2024/04/12 13:07:59;;;;;;;4.25;2.55;;;26.70;99.90;;;;;;5460505;26;20263;-73
2024/04/12 13:10:33;;;;;;;3.00;2.30;;;26.70;99.90;;;;;;5406488;26;20258;-73
2024/04/12 13:13:04;;;;;;;5.18;3.00;;;26.50;99.90;;;;;;5473660;26;20257;-72
2024/04/12 13:15:32;;;;;;;4.70;3.05;;;26.50;99.90;;;;;;5428025;26;20250;-74
2024/04/12 13:17:58;;;;;;;5.97;2.33;;;26.60;99.90;;;;;;5452368;26;20597;-72
2024/04/12 13:20:27;;;;;;;3.78;2.80;;;26.50;99.90;;;;;;5458999;26;20288;-75
2024/04/12 13:22:53;;;;;;;4.60;2.50;;;26.70;99.90;;;;;;5433292;26;20258;-74
2024/04/12 13:25:24;;;;;;;4.95;2.60;;;26.70;99.90;;;;;;5456072;26;20685;-73
2024/04/12 13:27:51;;;;;;;6.28;2.60;;;26.70;99.90;;;;;;5455472;26;20262;-73
2024/04/12 13:30:21;;;;;;;3.45;2.30;;;26.50;99.90;;;;;;5463941;26;20640;-74
2024/04/12 13:32:48;;;;;;;4.05;2.70;;;26.50;99.90;;;;;;5455797;26;20250;-73
2024/04/12 13:35:17;;;;;;;4.30;2.42;;;26.70;99.90;;;;;;5459572;26;20259;-73
2024/04/12 13:37:43;;;;;;;2.63;1.88;;;26.60;99.90;;;;;;5464498;26;20688;-73
2024/04/12 13:40:17;;;;;;;4.55;2.35;;;26.80;99.90;;;;;;5471267;26;20354;-73
2024/04/12 13:42:49;;;;;;;4.40;2.50;;;26.90;99.90;;;;;;5465608;26;20326;-73
2024/04/12 13:51:01;;;;;;;4.30;2.33;;;26.60;99.90;;;;;;5451873;26;20407;-73
2024/04/12 13:53:36;;;;;;;3.75;2.28;;;26.70;99.90;;;;;;5469296;26;20945;-74
2024/04/12 13:58:52;;;;;;;3.15;2.15;;;26.50;99.90;;;;;;5473912;26;20302;-74
2024/04/12 14:01:22;;;;;;;3.88;2.28;;;26.50;99.90;;;;;;5458951;26;20261;-73
2024/04/12 14:03:52;;;;;;;5.97;2.42;;;26.20;99.90;;;;;;5467671;26;20292;-73
2024/04/12 14:06:22;;;;;;;8.35;3.00;;;26.20;99.90;;;;;;5465914;26;20305;-73
2024/04/12 14:08:51;;;;;;;5.60;2.60;;;26.20;99.90;;;;;;5458553;26;20254;-74
2024/04/12 14:11:17;;;;;;;4.63;2.70;;;26.00;99.90;;;;;;5468566;26;20810;-74
2024/04/12 14:13:46;;;;;;;4.88;2.38;;;26.00;99.90;;;;;;5442995;26;20276;-74
2024/04/12 14:16:16;;;;;;;4.30;2.65;;;26.00;99.90;;;;;;5463098;26;20404;-74
2024/04/12 14:18:48;;;;;;;3.50;2.55;;;26.00;99.90;;;;;;5467527;26;20302;-74
2024/04/12 14:21:15;;;;;;;4.75;2.50;;;26.10;99.90;;;;;;5467582;26;20262;-73
2024/04/12 14:23:45;;;;;;;5.22;2.95;;;26.20;99.90;;;;;;5444472;26;20292;-73
2024/04/12 14:26:12;;;;;;;3.20;2.45;;;26.20;99.90;;;;;;5432785;26;20339;-73
2024/04/12 14:28:40;;;;;;;3.55;2.38;;;26.30;99.90;;;;;;5449511;26;20282;-73
2024/04/12 14:31:06;;;;;;;3.55;2.40;;;26.30;99.90;;;;;;5473885;26;20313;-74
2024/04/12 14:33:38;;;;;;;4.63;2.50;;;26.50;99.90;;;;;;5469621;26;20692;-73
2024/04/12 14:36:06;;;;;;;6.22;2.50;;;26.60;99.90;;;;;;5465712;26;20291;-73
2024/04/12 14:38:38;;;;;;;7.55;2.83;;;26.70;99.90;;;;;;5465195;26;20284;-73
2024/04/12 14:41:07;;;;;;;5.20;2.20;;;26.80;99.90;;;;;;5468446;26;20262;-73
2024/04/12 14:43:36;;;;;;;3.88;2.25;;;26.80;99.90;;;;;;5469207;26;20309;-73
2024/04/12 14:46:06;;;;;;;3.05;2.25;;;27.00;99.90;;;;;;5461160;26;20277;-74
2024/04/12 14:48:41;;;;;;;2.35;2.13;;;27.10;99.90;;;;;;5471222;26;20262;-73
2024/04/12 14:51:08;;;;;;;3.15;2.17;;;27.10;99.90;;;;;;5448145;26;20823;-72
2024/04/12 14:53:36;;;;;;;2.75;1.92;;;27.10;99.90;;;;;;5437987;26;20586;-73
2024/04/12 14:56:03;;;;;;;2.20;2.00;;;27.10;99.90;;;;;;5445798;26;20747;-73
2024/04/12 14:58:31;;;;;;;3.70;2.03;;;27.10;99.90;;;;;;5444524;26;20254;-73
2024/04/12 15:00:57;;;;;;;3.22;2.20;;;27.00;99.90;;;;;;5470423;26;20262;-73
2024/04/12 15:50:26;;;;;;;2.00;1.80;;;25.30;99.90;;;;;;5442852;26;20254;-73
2024/04/12 15:53:17;;;;;;;1.58;1.48;;;25.20;99.90;;;;;;5470722;26;20661;-73
2024/04/12 15:55:57;;;;;;;2.85;1.80;;;25.10;99.90;;;;;;5473356;26;20341;-74
2024/04/12 16:12:14;;;;;;;2.13;1.92;;;24.20;99.90;;;;;;5478909;26;20308;-74
2024/04/12 16:14:40;;;;;;;1.98;1.67;;;24.10;99.90;;;;;;5438489;26;20703;-74
2024/04/12 16:17:10;;;;;;;2.08;1.60;;;24.00;99.90;;;;;;5471238;26;20277;-73
2024/04/12 16:19:40;;;;;;;2.28;1.52;;;23.90;99.90;;;;;;5465670;26;21027;-74
2024/04/12 16:22:07;;;;;;;2.10;1.52;;;23.80;99.90;;;;;;5463290;26;20343;-73
2024/04/12 16:24:35;;;;;;;2.85;1.90;;;23.70;99.90;;;;;;5469078;26;20334;-74
2024/04/12 16:27:04;;;;;;;2.30;1.90;;;23.60;99.90;;;;;;5437201;26;20319;-73
2024/04/12 16:29:35;;;;;;;2.63;1.90;;;23.50;99.90;;;;;;5445331;26;20253;-74
2024/04/12 16:32:05;;;;;;;2.20;1.65;;;23.40;99.90;;;;;;5463268;26;20257;-73
2024/04/12 16:34:31;;;;;;;4.65;2.00;;;23.30;99.90;;;;;;5437601;26;20337;-74
2024/04/12 16:37:00;;;;;;;2.33;1.88;;;23.20;99.90;;;;;;5455457;26;20344;-73
2024/04/12 16:39:26;;;;;;;1.88;1.73;;;23.10;99.90;;;;;;5466838;26;20797;-74
2024/04/12 16:41:55;;;;;;;2.85;1.83;;;23.00;99.90;;;;;;5430974;26;20255;-74
2024/04/12 16:44:22;;;;;;;1.90;1.70;;;23.00;99.90;;;;;;5438842;26;20289;-74
2024/04/12 16:46:53;;;;;;;2.45;2.10;;;22.90;99.90;;;;;;5475712;26;21081;-73
2024/04/12 16:49:19;;;;;;;2.25;1.98;;;22.80;99.90;;;;;;5438109;26;20254;-74
2024/04/12 16:51:53;;;;;;;2.45;2.10;;;22.80;99.90;;;;;;5460580;26;21096;-74
2024/04/12 16:54:19;;;;;;;4.25;2.42;;;22.70;99.90;;;;;;5438966;26;20296;-75
2024/04/12 16:56:48;;;;;;;3.10;1.95;;;22.80;99.90;;;;;;5440713;26;20246;-74
2024/04/12 16:59:14;;;;;;;2.33;2.10;;;22.70;99.90;;;;;;5438688;26;20227;-74
2024/04/12 17:01:43;;;;;;;5.20;2.63;;;22.60;99.90;;;;;;5437468;26;20254;-75
2024/04/12 17:04:12;;;;;;;2.60;2.00;;;22.50;99.90;;;;;;5467202;26;20254;-74
2024/04/12 17:06:41;;;;;;;2.28;1.90;;;22.30;99.90;;;;;;5435240;26;20247;-74
2024/04/12 17:09:09;;;;;;;3.53;2.15;;;22.10;99.90;;;;;;5463274;26;20327;-73
2024/04/12 17:11:39;;;;;;;2.30;2.10;;;22.00;99.90;;;;;;5465528;26;20258;-74
2024/04/12 17:14:06;;;;;;;2.13;2.00;;;21.90;99.90;;;;;;5439736;26;20274;-74
2024/04/12 17:16:36;;;;;;;2.25;1.90;;;21.80;99.90;;;;;;5438518;26;20250;-74
2024/04/12 17:19:04;;;;;;;2.95;2.20;;;21.70;99.90;;;;;;5467235;26;20289;-73
2024/04/12 17:21:36;;;;;;;2.80;2.25;;;21.60;99.90;;;;;;5467077;26;20241;-74
2024/04/12 17:24:02;;;;;;;2.17;1.90;;;21.60;99.90;;;;;;5440241;26;20255;-72
2024/04/12 17:26:31;;;;;;;2.53;1.80;;;21.50;99.90;;;;;;5409290;26;20292;-74
2024/04/12 17:28:57;;;;;;;1.73;1.63;;;21.50;99.90;;;;;;5438546;26;21099;-73
2024/04/12 17:31:25;;;;;;;2.20;2.00;;;21.40;99.90;;;;;;5474030;26;20305;-76
2024/04/12 17:33:51;;;;;;;2.95;1.73;;;21.30;99.90;;;;;;5463655;26;20254;-74
2024/04/12 17:36:20;;;;;;;2.53;1.80;;;21.30;99.90;;;;;;5469428;26;20304;-73
2024/04/12 17:38:48;;;;;;;2.30;2.10;;;21.20;99.90;;;;;;5462876;26;20254;-74
2024/04/12 17:41:18;;;;;;;2.15;1.90;;;21.20;99.90;;;;;;5466539;26;20262;-73
2024/04/12 17:43:45;;;;;;;2.58;1.98;;;21.10;99.90;;;;;;5467140;26;20234;-75
2024/04/12 17:46:14;;;;;;;2.20;1.90;;;21.00;99.90;;;;;;5469563;26;20345;-74
2024/04/12 17:48:40;;;;;;;2.25;1.67;;;20.90;99.90;;;;;;5472212;26;20254;-74
2024/04/12 17:51:09;;;;;;;2.33;1.98;;;20.80;99.90;;;;;;5464923;26;20708;-73
2024/04/12 17:53:35;;;;;;;3.63;1.90;;;20.60;99.90;;;;;;5465122;26;20254;-74
2024/04/12 17:56:07;;;;;;;2.67;1.90;;;20.60;99.90;;;;;;5432666;26;20255;-73
2024/04/12 17:58:35;;;;;;;2.03;1.83;;;20.50;99.90;;;;;;5470255;26;20304;-73
2024/04/12 18:01:05;;;;;;;2.00;1.80;;;20.50;99.90;;;;;;5470126;26;20335;-73
2024/04/12 18:03:31;;;;;;;2.38;2.03;;;20.40;99.90;;;;;;5466399;26;20290;-74
2024/04/12 18:06:00;;;;;;;1.83;1.73;;;20.40;99.90;;;;;;5429218;26;20259;-75
2024/04/12 18:08:26;;;;;;;2.15;1.75;;;20.30;99.90;;;;;;5464201;26;20246;-74
2024/04/12 18:11:11;;;;;;;2.50;2.30;;;20.30;99.90;;;;;;5471991;26;20306;-73
2024/04/12 18:13:38;;;;;;;2.17;1.98;;;20.20;99.90;;;;;;5463795;26;20270;-73